Latest Weather Observations for Yanco

IDN60801

Issued at 4:03 am EST Friday 31 July 2015 (issued every 30 minutes, with the page automatically refreshed every 10 minutes)

About weather observations | Map of weather stations | Latest weather observations for NSW | Other Formats
Station Details ID: 074037 Name: YANCO AGRICULTURAL INSTITUTE Lat: -34.62 Lon: 146.43 Height: 164.0 m
Data from the previous 72 hours. | See also: Recent months at Yanco
Date/Time
EST
Temp
°C
App
Temp
°C
Dew
Point
Rel
Hum
%
Delta-T
°C
Wind Press
QNH
hPa
Press
MSL
hPa
Rain
since 9 am
mm
Dir
 
Spd
km/h
Gust
km/h
Spd
kts
Gust
kts
31/04:00am 7.5 5.0 4.8 83 1.2 NNW 7 9 4 5 - - 0.0
31/03:30am 8.1 5.3 5.0 81 1.4 NNW 9 11 5 6 - - 0.0
31/03:00am 8.3 5.9 5.1 80 1.4 NNW 7 9 4 5 - - 0.0
31/02:30am 9.3 6.5 5.3 76 1.8 NNW 9 13 5 7 - - 0.0
31/02:00am 9.9 7.1 5.3 73 2.1 NNW 9 13 5 7 - - 0.0
31/01:30am 9.9 7.2 5.5 74 2.0 NNW 9 13 5 7 - - 0.0
31/01:00am 10.0 7.3 5.4 73 2.1 N 9 13 5 7 - - 0.0
31/12:30am 10.1 7.0 5.5 73 2.1 N 11 15 6 8 - - 0.0
31/12:00am 10.0 6.9 5.6 74 2.0 N 11 13 6 7 - - 0.0
 
Date/Time
EST
Temp
°C
App
Temp
°C
Dew
Point
Rel
Hum
%
Delta-T
°C
Wind Press
QNH
hPa
Press
MSL
hPa
Rain
since 9 am
mm
Dir
 
Spd
km/h
Gust
km/h
Spd
kts
Gust
kts
30/11:30pm 9.3 6.6 5.5 77 1.7 N 9 13 5 7 - - 0.0
30/11:00pm 9.5 6.4 5.5 76 1.8 N 11 13 6 7 - - 0.0
30/10:30pm 10.0 7.3 5.6 74 2.0 NNW 9 13 5 7 - - 0.0
30/10:00pm 10.1 7.0 5.7 74 2.0 N 11 15 6 8 - - 0.0
30/09:30pm 9.6 6.9 5.6 76 1.8 N 9 11 5 6 - - 0.0
30/09:00pm 9.6 7.4 5.4 75 1.9 NNW 6 7 3 4 - - 0.0
30/08:30pm 9.9 7.2 5.7 75 1.9 N 9 13 5 7 - - 0.0
30/08:00pm 10.3 7.6 5.7 73 2.1 N 9 13 5 7 - - 0.0
30/07:30pm 10.1 7.5 5.9 75 2.0 N 9 13 5 7 - - 0.0
30/07:00pm 10.0 8.1 6.5 79 1.6 NNW 6 7 3 4 - - 0.0
30/06:30pm 10.3 8.1 6.3 76 1.9 N 7 11 4 6 - - 0.0
30/06:00pm 10.0 7.5 6.5 79 1.6 NNE 9 11 5 6 - - 0.0
30/05:30pm 10.5 8.5 6.1 74 2.1 N 6 7 3 4 - - 0.0
30/05:00pm 11.3 9.1 6.2 71 2.4 NNW 7 11 4 6 - - 0.0
30/04:30pm 11.5 8.9 6.2 70 2.5 N 9 13 5 7 - - 0.0
30/04:00pm 11.9 8.5 5.8 66 2.9 NNW 13 19 7 10 - - 0.0
30/03:30pm 12.4 8.6 5.8 64 3.1 NW 15 20 8 11 - - 0.0
30/03:00pm 12.8 8.6 5.7 62 3.4 NNW 17 22 9 12 - - 0.0
30/02:30pm 13.0 9.2 5.7 61 3.5 NNW 15 26 8 14 - - 0.0
30/02:00pm 12.4 8.6 5.8 64 3.1 NW 15 22 8 12 - - 0.0
30/01:30pm 12.2 7.6 5.8 65 3.0 NW 19 26 10 14 - - 0.0
30/01:00pm 12.9 7.9 4.8 58 3.8 NW 20 30 11 16 - - 0.0
30/12:30pm 12.3 8.1 5.9 65 3.0 NNW 17 33 9 18 - - 0.0
30/12:00pm 12.3 8.6 6.4 67 2.8 NNW 15 22 8 12 - - 0.0
30/11:30am 11.5 8.2 6.6 72 2.3 NNW 13 17 7 9 - - 0.0
30/11:00am 11.1 8.2 6.6 74 2.1 N 11 17 6 9 - - 0.0
30/10:30am 10.8 7.8 6.2 73 2.2 N 11 17 6 9 - - 0.0
30/10:00am 10.0 6.3 6.5 79 1.6 N 15 19 8 10 - - 0.0
30/09:30am 9.3 6.0 6.2 81 1.4 NNE 13 19 7 10 - - 0.0
30/09:00am 8.7 6.1 6.0 83 1.2 N 9 13 5 7 - - 0.2
30/08:30am 7.4 4.9 5.0 85 1.1 NNE 7 9 4 5 - - 0.2
30/08:00am 6.3 4.0 4.6 89 0.7 NNE 6 6 3 3 - - 0.2
30/07:30am 5.7 3.7 4.3 91 0.6 NE 4 4 2 2 - - 0.2
30/07:00am 5.7 3.7 4.5 92 0.5 NE 4 4 2 2 - - 0.2
30/06:30am 5.6 3.3 4.6 93 0.4 NE 6 7 3 4 - - 0.2
30/06:00am 5.7 3.4 5.0 95 0.3 ENE 6 6 3 3 - - 0.2
30/05:30am 5.6 4.4 4.6 93 0.4 CALM 0 0 0 0 - - 0.2
30/05:00am 5.8 3.9 4.8 93 0.4 ENE 4 6 2 3 - - 0.2
30/04:30am 5.9 3.4 5.0 94 0.4 ENE 7 9 4 5 - - 0.2
30/04:00am 6.2 3.1 5.5 95 0.3 E 11 13 6 7 - - 0.2
30/03:30am 6.4 3.7 5.5 94 0.4 ENE 9 13 5 7 - - 0.2
30/03:00am 6.5 3.4 5.5 93 0.4 E 11 13 6 7 - - 0.2
30/02:30am 6.8 4.1 5.4 91 0.6 E 9 11 5 6 - - 0.2
30/02:00am 7.1 4.9 5.4 89 0.8 E 6 7 3 4 - - 0.2
30/01:30am 7.6 4.5 5.7 88 0.9 E 11 15 6 8 - - 0.2
30/01:00am 7.3 4.3 6.1 92 0.5 E 11 15 6 8 - - 0.2
30/12:30am 7.3 4.3 6.1 92 0.5 E 11 13 6 7 - - 0.2
30/12:00am 7.6 4.2 6.1 90 0.7 E 13 15 7 8 - - 0.2
 
Date/Time
EST
Temp
°C
App
Temp
°C
Dew
Point
Rel
Hum
%
Delta-T
°C
Wind Press
QNH
hPa
Press
MSL
hPa
Rain
since 9 am
mm
Dir
 
Spd
km/h
Gust
km/h
Spd
kts
Gust
kts
29/11:30pm 7.4 4.0 6.0 91 0.6 E 13 15 7 8 - - 0.2
29/11:00pm 7.6 4.2 6.1 90 0.7 E 13 15 7 8 - - 0.2
29/10:30pm 7.5 4.5 6.0 90 0.7 E 11 15 6 8 - - 0.2
29/10:00pm 7.4 4.8 5.9 90 0.7 E 9 13 5 7 - - 0.2
29/09:30pm 7.5 4.5 5.8 89 0.8 E 11 13 6 7 - - 0.2
29/09:00pm 8.0 4.6 6.0 87 0.9 E 13 17 7 9 - - 0.2
29/08:30pm 8.3 5.3 5.9 85 1.1 E 11 13 6 7 - - 0.2
29/08:00pm 8.7 6.4 5.6 81 1.4 ESE 7 9 4 5 - - 0.2
29/07:30pm 8.7 6.4 5.6 81 1.4 ESE 7 9 4 5 - - 0.2
29/07:00pm 8.8 7.1 6.1 83 1.2 ESE 4 6 2 3 - - 0.2
29/06:30pm 9.2 7.3 6.5 83 1.3 ESE 6 7 3 4 - - 0.2
29/06:00pm 9.5 7.5 6.9 84 1.2 E 7 9 4 5 - - 0.2
29/05:30pm 10.1 8.1 7.0 81 1.5 ESE 7 9 4 5 - - 0.2
29/05:00pm 10.5 8.7 7.2 80 1.6 SE 6 9 3 5 - - 0.2
29/04:30pm 11.3 9.4 6.8 74 2.2 SSE 6 9 3 5 - - 0.2
29/04:00pm 11.9 9.8 6.8 71 2.5 SSW 7 11 4 6 - - 0.2
29/03:30pm 12.0 10.6 5.6 65 3.0 ESE 2 4 1 2 - - 0.2
29/03:00pm 12.6 10.9 5.8 63 3.2 NE 4 9 2 5 - - 0.2
29/02:30pm 12.2 10.7 5.1 62 3.3 NNE 2 6 1 3 - - 0.2
29/02:00pm 12.3 10.9 5.7 64 3.1 ESE 2 4 1 2 - - 0.2
29/01:30pm 11.8 10.2 6.3 69 2.6 S 4 6 2 3 - - 0.2
29/01:00pm 11.9 10.8 6.8 71 2.5 SE 2 4 1 2 - - 0.2
29/12:30pm 12.1 10.3 8.0 76 2.0 E 7 11 4 6 - - 0.2
29/12:00pm 11.8 9.8 7.1 73 2.3 ENE 7 15 4 8 - - 0.2
29/11:30am 11.4 9.9 6.7 73 2.2 E 4 7 2 4 - - 0.2
29/11:00am 10.8 9.3 6.9 77 1.9 ESE 4 6 2 3 - - 0.0
29/10:30am 10.7 9.5 6.6 76 1.9 E 2 6 1 3 - - 0.0
29/10:00am 10.5 9.5 7.2 80 1.6 NE 2 6 1 3 - - 0.0
29/09:30am 9.0 8.4 7.5 90 0.7 CALM 0 0 0 0 - - 0.0
29/09:00am 7.3 6.7 7.2 99 0.0 CALM 0 2 0 1 - - 0.0
29/08:30am 5.6 4.6 5.5 99 0.0 CALM 0 4 0 2 - - 0.0
29/08:00am 3.7 2.3 3.6 99 0.0 CALM 0 0 0 0 - - 0.0
29/07:30am 1.9 0.2 1.8 99 0.0 CALM 0 0 0 0 - - 0.0
29/07:00am 2.7 0.8 2.6 99 0.0 NE 2 4 1 2 - - 0.0
29/06:30am 3.5 1.3 3.4 99 0.0 NNE 4 4 2 2 - - 0.0
29/06:00am 3.6 1.4 3.5 99 0.0 NNE 4 6 2 3 - - 0.0
29/05:30am 3.8 1.7 3.7 99 0.0 NNE 4 6 2 3 - - 0.0
29/05:00am 3.7 1.5 3.6 99 0.0 N 4 4 2 2 - - 0.0
29/04:30am 4.0 2.3 3.9 99 0.0 ESE 2 2 1 1 - - 0.0
29/04:00am 3.6 2.2 3.3 98 0.1 CALM 0 4 0 2 - - 0.0
29/03:30am 3.8 2.4 3.5 98 0.1 CALM 0 0 0 0 - - 0.0
29/03:00am 4.5 3.2 4.2 98 0.1 CALM 0 2 0 1 - - 0.0
29/02:30am 4.6 3.3 4.2 97 0.2 CALM 0 0 0 0 - - 0.0
29/02:00am 5.0 3.8 4.6 97 0.2 CALM 0 0 0 0 - - 0.0
29/01:30am 5.6 3.4 5.2 97 0.2 N 6 7 3 4 - - 0.0
29/01:00am 5.4 3.5 5.0 97 0.2 N 4 6 2 3 - - 0.0
29/12:30am 5.4 3.8 4.4 93 0.4 SSW 2 4 1 2 - - 0.0
29/12:00am 6.5 5.4 5.0 90 0.7 CALM 0 0 0 0 - - 0.0
 
Date/Time
EST
Temp
°C
App
Temp
°C
Dew
Point
Rel
Hum
%
Delta-T
°C
Wind Press
QNH
hPa
Press
MSL
hPa
Rain
since 9 am
mm
Dir
 
Spd
km/h
Gust
km/h
Spd
kts
Gust
kts
28/11:30pm 6.6 5.5 5.1 90 0.7 CALM 0 0 0 0 - - 0.0
28/11:00pm 7.4 5.9 4.9 84 1.1 SSW 2 2 1 1 - - 0.0
28/10:30pm 8.1 6.3 5.2 82 1.3 SSW 4 6 2 3 - - 0.0
28/10:00pm 8.4 6.2 5.2 80 1.4 SSW 6 7 3 4 - - 0.0
28/09:30pm 8.7 6.9 5.6 81 1.4 SW 4 6 2 3 - - 0.0
28/09:00pm 9.2 7.4 5.6 78 1.7 SW 4 4 2 2 - - 0.0
28/08:30pm 9.5 8.1 5.7 77 1.8 SW 2 4 1 2 - - 0.0
28/08:00pm 9.8 8.1 5.8 76 1.9 SW 4 6 2 3 - - 0.0
28/07:30pm 10.1 8.4 6.1 76 1.9 SW 4 6 2 3 - - 0.0
28/07:00pm 10.0 8.4 6.5 79 1.6 SW 4 4 2 2 - - 0.0
28/06:30pm 10.7 8.7 6.3 74 2.1 S 6 6 3 3 - - 0.0
28/06:00pm 10.8 8.8 6.2 73 2.2 S 6 6 3 3 - - 0.0
28/05:30pm 10.8 8.9 6.6 75 2.0 SSW 6 6 3 3 - - 0.0
28/05:00pm 10.8 8.8 6.2 73 2.2 SW 6 6 3 3 - - 0.0
28/04:30pm 11.3 9.1 6.4 72 2.3 SW 7 11 4 6 - - 0.0
28/04:00pm 12.0 9.4 5.9 66 2.9 SW 9 13 5 7 - - 0.0
28/03:30pm 12.2 9.2 6.0 66 2.9 SSW 11 15 6 8 - - 0.0
28/03:00pm 12.1 10.1 6.2 67 2.8 S 6 9 3 5 - - 0.0
28/02:30pm 12.1 10.4 5.9 66 2.9 S 4 7 2 4 - - 0.0
28/02:00pm 12.8 11.2 6.2 64 3.2 SSW 4 11 2 6 - - 0.0
28/01:30pm 12.0 9.4 6.3 68 2.7 WSW 9 17 5 9 - - 0.0
28/01:00pm 11.5 8.5 6.0 69 2.6 SW 11 17 6 9 - - 0.0
28/12:30pm 11.0 8.0 6.2 72 2.3 WSW 11 17 6 9 - - 0.0
28/12:00pm 10.8 8.9 6.6 75 2.0 SW 6 11 3 6 - - 0.0
28/11:30am 10.4 8.3 6.5 77 1.8 SSW 7 11 4 6 - - 0.0
28/11:00am 10.0 7.4 6.3 78 1.7 SSW 9 15 5 8 - - 0.0
28/10:30am 8.7 6.6 5.6 81 1.4 SSW 6 9 3 5 - - 0.0
28/10:00am 8.2 7.2 5.7 84 1.1 CALM 0 0 0 0 - - 0.0
28/09:30am 6.8 5.6 4.6 86 1.0 CALM 0 2 0 1 - - 0.0
28/09:00am 5.3 2.9 4.3 93 0.4 W 6 9 3 5 - - 0.2
28/08:30am 4.4 2.3 4.0 97 0.2 NW 4 6 2 3 - - 0.2
28/08:00am 3.3 0.7 3.0 98 0.1 NNW 6 6 3 3 - - 0.2
28/07:30am 2.9 0.2 2.5 97 0.2 NW 6 6 3 3 - - 0.2
28/07:00am 3.4 0.8 3.0 97 0.2 WNW 6 7 3 4 - - 0.0
28/06:30am 3.4 1.1 2.7 95 0.3 WNW 4 6 2 3 - - 0.0
28/06:00am 3.9 1.2 2.9 93 0.4 SW 6 7 3 4 - - 0.0
28/05:30am 4.4 2.2 3.4 93 0.4 SSW 4 6 2 3 - - 0.0
28/05:00am 4.4 1.8 3.4 93 0.4 SW 6 7 3 4 - - 0.0
28/04:30am 4.4 1.6 3.1 91 0.5 SW 7 9 4 5 - - 0.0

Other Formats:

Comma delimited format used in spreadsheet applications
http://www.bom.gov.au/fwo/IDN60801/IDN60801.95705.axf

JavaScript Object Notation format (JSON) in row-major order
http://www.bom.gov.au/fwo/IDN60801/IDN60801.95705.json